sensor_id;sensor_type;location;lat;lon;timestamp;P1;durP1;ratioP1;P2;durP2;ratioP2
60859;SDS011;46694;54.382;9.708;2022-11-02T00:00:00;14.10;;;2.40;;
60859;SDS011;46694;54.382;9.708;2022-11-02T00:02:40;16.58;;;3.17;;
60859;SDS011;46694;54.382;9.708;2022-11-02T00:05:20;12.45;;;2.60;;
60859;SDS011;46694;54.382;9.708;2022-11-02T00:08:02;14.05;;;3.00;;
60859;SDS011;46694;54.382;9.708;2022-11-02T00:10:42;18.77;;;3.10;;
60859;SDS011;46694;54.382;9.708;2022-11-02T00:13:21;16.02;;;2.60;;
60859;SDS011;46694;54.382;9.708;2022-11-02T00:16:02;21.02;;;3.70;;
60859;SDS011;46694;54.382;9.708;2022-11-02T00:18:45;14.93;;;2.90;;
60859;SDS011;46694;54.382;9.708;2022-11-02T00:21:28;16.50;;;3.10;;
60859;SDS011;46694;54.382;9.708;2022-11-02T00:24:08;19.70;;;2.85;;
60859;SDS011;46694;54.382;9.708;2022-11-02T00:26:49;18.80;;;3.03;;
60859;SDS011;46694;54.382;9.708;2022-11-02T00:29:28;18.45;;;3.00;;
60859;SDS011;46694;54.382;9.708;2022-11-02T00:32:08;15.48;;;3.45;;
60859;SDS011;46694;54.382;9.708;2022-11-02T00:34:47;16.40;;;3.23;;
60859;SDS011;46694;54.382;9.708;2022-11-02T00:37:27;19.23;;;3.23;;
60859;SDS011;46694;54.382;9.708;2022-11-02T00:40:07;17.80;;;2.60;;
60859;SDS011;46694;54.382;9.708;2022-11-02T00:42:47;14.47;;;2.40;;
60859;SDS011;46694;54.382;9.708;2022-11-02T00:45:27;19.95;;;3.60;;
60859;SDS011;46694;54.382;9.708;2022-11-02T00:48:07;17.55;;;3.08;;
60859;SDS011;46694;54.382;9.708;2022-11-02T00:50:46;17.08;;;3.20;;
60859;SDS011;46694;54.382;9.708;2022-11-02T00:53:26;15.70;;;3.22;;
60859;SDS011;46694;54.382;9.708;2022-11-02T00:56:05;16.55;;;2.97;;
60859;SDS011;46694;54.382;9.708;2022-11-02T00:58:45;15.27;;;3.03;;
60859;SDS011;46694;54.382;9.708;2022-11-02T01:01:25;18.42;;;3.28;;
60859;SDS011;46694;54.382;9.708;2022-11-02T01:04:04;17.15;;;2.70;;
60859;SDS011;46694;54.382;9.708;2022-11-02T01:06:44;16.00;;;2.90;;
60859;SDS011;46694;54.382;9.708;2022-11-02T01:09:24;15.00;;;3.08;;
60859;SDS011;46694;54.382;9.708;2022-11-02T01:12:03;14.55;;;2.50;;
60859;SDS011;46694;54.382;9.708;2022-11-02T01:14:47;19.20;;;3.25;;
60859;SDS011;46694;54.382;9.708;2022-11-02T01:17:27;16.13;;;2.72;;
60859;SDS011;46694;54.382;9.708;2022-11-02T01:20:07;22.00;;;2.92;;
60859;SDS011;46694;54.382;9.708;2022-11-02T01:22:48;14.93;;;2.87;;
60859;SDS011;46694;54.382;9.708;2022-11-02T01:25:27;14.27;;;2.27;;
60859;SDS011;46694;54.382;9.708;2022-11-02T01:28:07;17.10;;;2.38;;
60859;SDS011;46694;54.382;9.708;2022-11-02T01:30:47;15.15;;;2.90;;
60859;SDS011;46694;54.382;9.708;2022-11-02T01:33:27;16.75;;;2.63;;
60859;SDS011;46694;54.382;9.708;2022-11-02T01:36:06;16.23;;;2.80;;
60859;SDS011;46694;54.382;9.708;2022-11-02T01:38:47;21.63;;;3.38;;
60859;SDS011;46694;54.382;9.708;2022-11-02T01:41:27;20.23;;;3.20;;
60859;SDS011;46694;54.382;9.708;2022-11-02T01:47:11;16.05;;;2.90;;
60859;SDS011;46694;54.382;9.708;2022-11-02T01:49:57;18.38;;;3.40;;
60859;SDS011;46694;54.382;9.708;2022-11-02T01:52:51;18.77;;;3.10;;
60859;SDS011;46694;54.382;9.708;2022-11-02T01:55:31;18.67;;;2.50;;
60859;SDS011;46694;54.382;9.708;2022-11-02T01:58:12;19.88;;;3.40;;
60859;SDS011;46694;54.382;9.708;2022-11-02T02:00:53;17.75;;;2.75;;
60859;SDS011;46694;54.382;9.708;2022-11-02T02:03:34;19.23;;;2.70;;
60859;SDS011;46694;54.382;9.708;2022-11-02T02:06:14;14.30;;;2.55;;
60859;SDS011;46694;54.382;9.708;2022-11-02T02:08:56;19.08;;;2.53;;
60859;SDS011;46694;54.382;9.708;2022-11-02T02:11:41;16.55;;;2.90;;
60859;SDS011;46694;54.382;9.708;2022-11-02T02:14:20;19.38;;;2.60;;
60859;SDS011;46694;54.382;9.708;2022-11-02T02:17:11;19.00;;;2.80;;
60859;SDS011;46694;54.382;9.708;2022-11-02T02:32:54;16.90;;;2.70;;
60859;SDS011;46694;54.382;9.708;2022-11-02T02:38:25;20.10;;;3.70;;
60859;SDS011;46694;54.382;9.708;2022-11-02T02:41:16;16.03;;;2.90;;
60859;SDS011;46694;54.382;9.708;2022-11-02T02:44:05;19.52;;;3.22;;
60859;SDS011;46694;54.382;9.708;2022-11-02T02:46:59;19.25;;;2.60;;
60859;SDS011;46694;54.382;9.708;2022-11-02T02:49:46;23.75;;;3.22;;
60859;SDS011;46694;54.382;9.708;2022-11-02T02:52:33;20.58;;;2.95;;
60859;SDS011;46694;54.382;9.708;2022-11-02T02:55:16;21.58;;;2.60;;
60859;SDS011;46694;54.382;9.708;2022-11-02T02:58:01;14.25;;;2.72;;
60859;SDS011;46694;54.382;9.708;2022-11-02T03:00:42;16.20;;;2.97;;
60859;SDS011;46694;54.382;9.708;2022-11-02T03:03:23;19.25;;;2.85;;
60859;SDS011;46694;54.382;9.708;2022-11-02T03:08:52;13.77;;;3.05;;
60859;SDS011;46694;54.382;9.708;2022-11-02T03:21:29;15.85;;;2.97;;
60859;SDS011;46694;54.382;9.708;2022-11-02T03:24:26;22.80;;;3.20;;
60859;SDS011;46694;54.382;9.708;2022-11-02T03:27:34;14.93;;;2.85;;
60859;SDS011;46694;54.382;9.708;2022-11-02T03:30:22;17.95;;;2.97;;
60859;SDS011;46694;54.382;9.708;2022-11-02T03:33:06;18.00;;;2.80;;
60859;SDS011;46694;54.382;9.708;2022-11-02T03:36:08;13.88;;;2.60;;
60859;SDS011;46694;54.382;9.708;2022-11-02T03:38:58;16.80;;;2.90;;
60859;SDS011;46694;54.382;9.708;2022-11-02T03:41:44;17.63;;;2.85;;
60859;SDS011;46694;54.382;9.708;2022-11-02T03:44:25;25.83;;;3.50;;
60859;SDS011;46694;54.382;9.708;2022-11-02T03:47:09;16.40;;;2.60;;
60859;SDS011;46694;54.382;9.708;2022-11-02T03:53:16;19.98;;;2.80;;
60859;SDS011;46694;54.382;9.708;2022-11-02T03:56:06;19.50;;;3.00;;
60859;SDS011;46694;54.382;9.708;2022-11-02T03:58:51;18.48;;;3.70;;
60859;SDS011;46694;54.382;9.708;2022-11-02T04:01:31;17.80;;;2.72;;
60859;SDS011;46694;54.382;9.708;2022-11-02T04:04:19;14.38;;;3.10;;
60859;SDS011;46694;54.382;9.708;2022-11-02T04:06:59;14.80;;;2.90;;
60859;SDS011;46694;54.382;9.708;2022-11-02T04:09:38;20.45;;;3.08;;
60859;SDS011;46694;54.382;9.708;2022-11-02T04:12:18;20.17;;;3.10;;
60859;SDS011;46694;54.382;9.708;2022-11-02T04:15:16;17.45;;;3.20;;
60859;SDS011;46694;54.382;9.708;2022-11-02T04:17:56;16.58;;;3.10;;
60859;SDS011;46694;54.382;9.708;2022-11-02T04:20:54;16.17;;;2.85;;
60859;SDS011;46694;54.382;9.708;2022-11-02T04:23:33;17.52;;;2.80;;
60859;SDS011;46694;54.382;9.708;2022-11-02T04:26:31;21.25;;;3.80;;
60859;SDS011;46694;54.382;9.708;2022-11-02T04:29:11;13.45;;;3.10;;
60859;SDS011;46694;54.382;9.708;2022-11-02T04:31:51;18.98;;;3.53;;
60859;SDS011;46694;54.382;9.708;2022-11-02T04:34:31;23.03;;;3.30;;
60859;SDS011;46694;54.382;9.708;2022-11-02T04:37:10;10.67;;;2.33;;
60859;SDS011;46694;54.382;9.708;2022-11-02T04:40:08;15.15;;;3.25;;
60859;SDS011;46694;54.382;9.708;2022-11-02T04:42:49;12.90;;;3.10;;
60859;SDS011;46694;54.382;9.708;2022-11-02T04:45:28;17.45;;;3.28;;
60859;SDS011;46694;54.382;9.708;2022-11-02T04:48:08;15.15;;;3.40;;
60859;SDS011;46694;54.382;9.708;2022-11-02T04:50:47;15.63;;;3.37;;
60859;SDS011;46694;54.382;9.708;2022-11-02T04:53:27;15.45;;;2.97;;
60859;SDS011;46694;54.382;9.708;2022-11-02T04:56:07;12.95;;;3.47;;
60859;SDS011;46694;54.382;9.708;2022-11-02T04:58:48;10.13;;;2.50;;
60859;SDS011;46694;54.382;9.708;2022-11-02T05:01:29;17.25;;;3.00;;
60859;SDS011;46694;54.382;9.708;2022-11-02T05:04:09;23.33;;;3.40;;
60859;SDS011;46694;54.382;9.708;2022-11-02T05:06:48;12.03;;;3.07;;
60859;SDS011;46694;54.382;9.708;2022-11-02T05:09:28;14.33;;;3.40;;
60859;SDS011;46694;54.382;9.708;2022-11-02T05:12:08;22.77;;;3.00;;
60859;SDS011;46694;54.382;9.708;2022-11-02T05:14:47;15.93;;;2.30;;
60859;SDS011;46694;54.382;9.708;2022-11-02T05:17:27;14.27;;;3.10;;
60859;SDS011;46694;54.382;9.708;2022-11-02T05:23:34;14.48;;;3.03;;
60859;SDS011;46694;54.382;9.708;2022-11-02T05:26:13;19.77;;;3.03;;
60859;SDS011;46694;54.382;9.708;2022-11-02T05:28:53;17.48;;;3.42;;
60859;SDS011;46694;54.382;9.708;2022-11-02T05:31:32;14.30;;;2.83;;
60859;SDS011;46694;54.382;9.708;2022-11-02T05:34:12;18.97;;;3.27;;
60859;SDS011;46694;54.382;9.708;2022-11-02T05:36:51;14.33;;;2.37;;
60859;SDS011;46694;54.382;9.708;2022-11-02T05:39:31;20.17;;;2.87;;
60859;SDS011;46694;54.382;9.708;2022-11-02T05:42:10;16.43;;;3.63;;
60859;SDS011;46694;54.382;9.708;2022-11-02T05:44:50;13.30;;;3.00;;
60859;SDS011;46694;54.382;9.708;2022-11-02T05:47:30;16.03;;;2.67;;
60859;SDS011;46694;54.382;9.708;2022-11-02T05:50:09;19.15;;;2.85;;
60859;SDS011;46694;54.382;9.708;2022-11-02T05:52:49;22.42;;;3.80;;
60859;SDS011;46694;54.382;9.708;2022-11-02T05:55:29;17.47;;;3.03;;
60859;SDS011;46694;54.382;9.708;2022-11-02T05:58:08;13.10;;;2.87;;
60859;SDS011;46694;54.382;9.708;2022-11-02T06:00:48;14.00;;;2.50;;
60859;SDS011;46694;54.382;9.708;2022-11-02T06:03:28;21.23;;;3.50;;
60859;SDS011;46694;54.382;9.708;2022-11-02T06:06:08;17.13;;;2.57;;
60859;SDS011;46694;54.382;9.708;2022-11-02T06:08:49;15.85;;;3.33;;
60859;SDS011;46694;54.382;9.708;2022-11-02T06:11:29;13.37;;;2.50;;
60859;SDS011;46694;54.382;9.708;2022-11-02T06:14:08;23.63;;;3.40;;
60859;SDS011;46694;54.382;9.708;2022-11-02T06:16:48;17.17;;;2.80;;
60859;SDS011;46694;54.382;9.708;2022-11-02T06:19:28;12.65;;;2.40;;
60859;SDS011;46694;54.382;9.708;2022-11-02T06:22:07;11.47;;;2.17;;
60859;SDS011;46694;54.382;9.708;2022-11-02T06:24:47;17.37;;;2.83;;
60859;SDS011;46694;54.382;9.708;2022-11-02T06:27:27;9.97;;;2.20;;
60859;SDS011;46694;54.382;9.708;2022-11-02T06:30:06;17.77;;;3.17;;
60859;SDS011;46694;54.382;9.708;2022-11-02T06:32:47;10.53;;;2.63;;
60859;SDS011;46694;54.382;9.708;2022-11-02T06:35:29;21.37;;;2.63;;
60859;SDS011;46694;54.382;9.708;2022-11-02T06:38:09;16.27;;;3.27;;
60859;SDS011;46694;54.382;9.708;2022-11-02T06:41:01;12.47;;;2.27;;
60859;SDS011;46694;54.382;9.708;2022-11-02T06:43:44;10.00;;;2.23;;
60859;SDS011;46694;54.382;9.708;2022-11-02T06:46:23;6.07;;;2.10;;
60859;SDS011;46694;54.382;9.708;2022-11-02T06:49:03;13.48;;;2.90;;
60859;SDS011;46694;54.382;9.708;2022-11-02T06:51:43;14.63;;;2.03;;
60859;SDS011;46694;54.382;9.708;2022-11-02T06:54:22;20.67;;;3.00;;
60859;SDS011;46694;54.382;9.708;2022-11-02T06:57:02;8.90;;;1.80;;
60859;SDS011;46694;54.382;9.708;2022-11-02T06:59:41;8.47;;;2.27;;
60859;SDS011;46694;54.382;9.708;2022-11-02T07:02:21;10.47;;;2.40;;
60859;SDS011;46694;54.382;9.708;2022-11-02T07:05:01;4.43;;;1.57;;
60859;SDS011;46694;54.382;9.708;2022-11-02T07:07:40;13.90;;;2.70;;
60859;SDS011;46694;54.382;9.708;2022-11-02T07:10:20;5.97;;;1.60;;
60859;SDS011;46694;54.382;9.708;2022-11-02T07:13:00;10.73;;;2.13;;
60859;SDS011;46694;54.382;9.708;2022-11-02T07:15:40;13.67;;;2.73;;
60859;SDS011;46694;54.382;9.708;2022-11-02T07:18:20;6.40;;;1.90;;
60859;SDS011;46694;54.382;9.708;2022-11-02T07:21:00;14.50;;;2.13;;
60859;SDS011;46694;54.382;9.708;2022-11-02T07:23:40;4.00;;;1.53;;
60859;SDS011;46694;54.382;9.708;2022-11-02T07:26:20;15.80;;;1.97;;
60859;SDS011;46694;54.382;9.708;2022-11-02T07:28:59;8.50;;;2.17;;
60859;SDS011;46694;54.382;9.708;2022-11-02T07:31:39;8.70;;;1.40;;
60859;SDS011;46694;54.382;9.708;2022-11-02T07:34:18;5.50;;;1.57;;
60859;SDS011;46694;54.382;9.708;2022-11-02T07:36:58;11.77;;;2.43;;
60859;SDS011;46694;54.382;9.708;2022-11-02T07:39:38;5.87;;;1.70;;
60859;SDS011;46694;54.382;9.708;2022-11-02T07:42:17;9.07;;;1.93;;
60859;SDS011;46694;54.382;9.708;2022-11-02T07:44:56;10.40;;;1.73;;
60859;SDS011;46694;54.382;9.708;2022-11-02T07:47:43;14.10;;;2.20;;
60859;SDS011;46694;54.382;9.708;2022-11-02T07:50:23;9.10;;;1.73;;
60859;SDS011;46694;54.382;9.708;2022-11-02T07:53:04;12.50;;;2.10;;
60859;SDS011;46694;54.382;9.708;2022-11-02T07:55:44;9.80;;;1.93;;
60859;SDS011;46694;54.382;9.708;2022-11-02T07:58:24;10.33;;;2.50;;
60859;SDS011;46694;54.382;9.708;2022-11-02T08:01:04;7.80;;;1.67;;
60859;SDS011;46694;54.382;9.708;2022-11-02T08:03:43;8.10;;;1.50;;
60859;SDS011;46694;54.382;9.708;2022-11-02T08:06:23;6.27;;;1.63;;
60859;SDS011;46694;54.382;9.708;2022-11-02T08:09:03;5.80;;;1.37;;
60859;SDS011;46694;54.382;9.708;2022-11-02T08:11:45;5.90;;;1.67;;
60859;SDS011;46694;54.382;9.708;2022-11-02T08:14:24;5.00;;;1.60;;
60859;SDS011;46694;54.382;9.708;2022-11-02T08:17:04;7.87;;;1.97;;
60859;SDS011;46694;54.382;9.708;2022-11-02T08:19:44;12.60;;;3.00;;
60859;SDS011;46694;54.382;9.708;2022-11-02T08:22:23;9.70;;;2.50;;
60859;SDS011;46694;54.382;9.708;2022-11-02T08:25:03;10.70;;;1.63;;
60859;SDS011;46694;54.382;9.708;2022-11-02T08:27:44;13.83;;;1.83;;
60859;SDS011;46694;54.382;9.708;2022-11-02T08:30:24;11.37;;;1.50;;
60859;SDS011;46694;54.382;9.708;2022-11-02T08:33:11;12.00;;;1.93;;
60859;SDS011;46694;54.382;9.708;2022-11-02T08:35:53;12.93;;;1.90;;
60859;SDS011;46694;54.382;9.708;2022-11-02T08:38:32;7.73;;;1.73;;
60859;SDS011;46694;54.382;9.708;2022-11-02T08:41:12;10.93;;;1.50;;
60859;SDS011;46694;54.382;9.708;2022-11-02T08:43:52;5.33;;;1.30;;
60859;SDS011;46694;54.382;9.708;2022-11-02T08:46:32;13.23;;;1.23;;
60859;SDS011;46694;54.382;9.708;2022-11-02T08:49:11;9.53;;;2.27;;
60859;SDS011;46694;54.382;9.708;2022-11-02T08:51:51;12.47;;;2.83;;
60859;SDS011;46694;54.382;9.708;2022-11-02T08:54:30;8.60;;;1.73;;
60859;SDS011;46694;54.382;9.708;2022-11-02T08:57:10;14.13;;;2.40;;
60859;SDS011;46694;54.382;9.708;2022-11-02T08:59:50;16.17;;;2.33;;
60859;SDS011;46694;54.382;9.708;2022-11-02T09:02:29;6.93;;;1.87;;
60859;SDS011;46694;54.382;9.708;2022-11-02T09:05:09;9.43;;;1.73;;
60859;SDS011;46694;54.382;9.708;2022-11-02T09:07:56;12.50;;;1.87;;
60859;SDS011;46694;54.382;9.708;2022-11-02T09:10:38;7.47;;;1.53;;
60859;SDS011;46694;54.382;9.708;2022-11-02T09:13:19;9.00;;;2.83;;
60859;SDS011;46694;54.382;9.708;2022-11-02T09:16:02;7.73;;;2.53;;
60859;SDS011;46694;54.382;9.708;2022-11-02T09:18:42;11.80;;;2.50;;
60859;SDS011;46694;54.382;9.708;2022-11-02T09:21:22;6.87;;;1.67;;
60859;SDS011;46694;54.382;9.708;2022-11-02T09:24:02;8.83;;;1.37;;
60859;SDS011;46694;54.382;9.708;2022-11-02T09:26:41;10.97;;;2.80;;
60859;SDS011;46694;54.382;9.708;2022-11-02T09:29:27;7.73;;;1.90;;
60859;SDS011;46694;54.382;9.708;2022-11-02T09:32:07;12.20;;;2.17;;
60859;SDS011;46694;54.382;9.708;2022-11-02T09:34:46;12.10;;;2.30;;
60859;SDS011;46694;54.382;9.708;2022-11-02T09:37:28;8.17;;;2.00;;
60859;SDS011;46694;54.382;9.708;2022-11-02T09:40:08;12.70;;;1.97;;
60859;SDS011;46694;54.382;9.708;2022-11-02T09:45:52;16.73;;;2.23;;
60859;SDS011;46694;54.382;9.708;2022-11-02T09:48:39;11.17;;;2.63;;
60859;SDS011;46694;54.382;9.708;2022-11-02T09:51:36;10.67;;;2.53;;
60859;SDS011;46694;54.382;9.708;2022-11-02T09:57:27;11.80;;;1.80;;
60859;SDS011;46694;54.382;9.708;2022-11-02T10:00:13;13.83;;;1.83;;
60859;SDS011;46694;54.382;9.708;2022-11-02T10:14:53;12.60;;;2.20;;
60859;SDS011;46694;54.382;9.708;2022-11-02T10:17:40;13.70;;;3.40;;
60859;SDS011;46694;54.382;9.708;2022-11-02T10:23:33;18.30;;;6.70;;
60859;SDS011;46694;54.382;9.708;2022-11-02T10:26:32;12.07;;;2.47;;
60859;SDS011;46694;54.382;9.708;2022-11-02T10:29:18;12.37;;;3.13;;
60859;SDS011;46694;54.382;9.708;2022-11-02T10:32:17;16.63;;;3.37;;
60859;SDS011;46694;54.382;9.708;2022-11-02T10:34:57;17.50;;;2.73;;
60859;SDS011;46694;54.382;9.708;2022-11-02T10:37:48;14.57;;;3.90;;
60859;SDS011;46694;54.382;9.708;2022-11-02T10:47:30;17.90;;;3.00;;
60859;SDS011;46694;54.382;9.708;2022-11-02T10:53:35;23.13;;;2.30;;
60859;SDS011;46694;54.382;9.708;2022-11-02T10:56:21;15.70;;;2.27;;
60859;SDS011;46694;54.382;9.708;2022-11-02T11:04:36;9.30;;;2.40;;
60859;SDS011;46694;54.382;9.708;2022-11-02T11:07:17;19.70;;;1.90;;
60859;SDS011;46694;54.382;9.708;2022-11-02T11:10:04;23.23;;;3.13;;
60859;SDS011;46694;54.382;9.708;2022-11-02T11:12:44;26.67;;;3.67;;
60859;SDS011;46694;54.382;9.708;2022-11-02T11:15:25;22.27;;;2.80;;
60859;SDS011;46694;54.382;9.708;2022-11-02T11:18:10;16.97;;;2.47;;
60859;SDS011;46694;54.382;9.708;2022-11-02T11:20:53;30.63;;;3.43;;
60859;SDS011;46694;54.382;9.708;2022-11-02T11:23:34;20.80;;;3.37;;
60859;SDS011;46694;54.382;9.708;2022-11-02T11:26:26;29.17;;;3.40;;
60859;SDS011;46694;54.382;9.708;2022-11-02T11:29:19;19.87;;;2.47;;
60859;SDS011;46694;54.382;9.708;2022-11-02T11:32:01;18.07;;;2.90;;
60859;SDS011;46694;54.382;9.708;2022-11-02T11:34:41;22.93;;;2.97;;
60859;SDS011;46694;54.382;9.708;2022-11-02T11:37:28;20.00;;;2.97;;
60859;SDS011;46694;54.382;9.708;2022-11-02T11:40:14;35.47;;;6.77;;
60859;SDS011;46694;54.382;9.708;2022-11-02T11:42:59;19.63;;;2.43;;
60859;SDS011;46694;54.382;9.708;2022-11-02T11:45:52;21.43;;;4.10;;
60859;SDS011;46694;54.382;9.708;2022-11-02T11:48:44;23.70;;;8.93;;
60859;SDS011;46694;54.382;9.708;2022-11-02T11:51:38;16.43;;;4.07;;
60859;SDS011;46694;54.382;9.708;2022-11-02T12:04:03;20.87;;;3.50;;
60859;SDS011;46694;54.382;9.708;2022-11-02T12:31:36;15.73;;;1.63;;
60859;SDS011;46694;54.382;9.708;2022-11-02T12:40:32;20.50;;;3.83;;
60859;SDS011;46694;54.382;9.708;2022-11-02T12:43:43;14.50;;;2.73;;
60859;SDS011;46694;54.382;9.708;2022-11-02T12:46:28;9.37;;;1.90;;
60859;SDS011;46694;54.382;9.708;2022-11-02T12:59:28;6.10;;;4.17;;
60859;SDS011;46694;54.382;9.708;2022-11-02T13:05:05;13.40;;;5.53;;
60859;SDS011;46694;54.382;9.708;2022-11-02T13:08:15;5.17;;;2.93;;
60859;SDS011;46694;54.382;9.708;2022-11-02T13:11:00;5.17;;;2.03;;
60859;SDS011;46694;54.382;9.708;2022-11-02T13:13:55;5.83;;;1.77;;
60859;SDS011;46694;54.382;9.708;2022-11-02T13:16:42;6.77;;;4.93;;
60859;SDS011;46694;54.382;9.708;2022-11-02T13:19:33;17.13;;;2.40;;
60859;SDS011;46694;54.382;9.708;2022-11-02T13:22:20;8.10;;;2.90;;
60859;SDS011;46694;54.382;9.708;2022-11-02T13:28:11;8.00;;;1.60;;
60859;SDS011;46694;54.382;9.708;2022-11-02T13:30:55;5.17;;;2.13;;
60859;SDS011;46694;54.382;9.708;2022-11-02T13:33:42;7.93;;;1.60;;
60859;SDS011;46694;54.382;9.708;2022-11-02T13:36:26;16.00;;;1.57;;
60859;SDS011;46694;54.382;9.708;2022-11-02T13:39:08;17.77;;;10.37;;
60859;SDS011;46694;54.382;9.708;2022-11-02T13:49:00;14.93;;;3.20;;
60859;SDS011;46694;54.382;9.708;2022-11-02T13:52:00;17.97;;;3.83;;
60859;SDS011;46694;54.382;9.708;2022-11-02T13:54:49;19.97;;;2.73;;
60859;SDS011;46694;54.382;9.708;2022-11-02T13:57:40;12.97;;;2.67;;
60859;SDS011;46694;54.382;9.708;2022-11-02T14:08:38;19.43;;;4.00;;
60859;SDS011;46694;54.382;9.708;2022-11-02T14:11:35;13.40;;;1.90;;
60859;SDS011;46694;54.382;9.708;2022-11-02T14:14:21;13.20;;;2.83;;
60859;SDS011;46694;54.382;9.708;2022-11-02T14:17:09;19.23;;;2.77;;
60859;SDS011;46694;54.382;9.708;2022-11-02T14:19:54;22.97;;;3.60;;
60859;SDS011;46694;54.382;9.708;2022-11-02T14:22:34;20.90;;;5.30;;
60859;SDS011;46694;54.382;9.708;2022-11-02T14:25:14;11.43;;;2.00;;
60859;SDS011;46694;54.382;9.708;2022-11-02T14:27:55;15.80;;;3.17;;
60859;SDS011;46694;54.382;9.708;2022-11-02T14:30:38;18.67;;;4.83;;
60859;SDS011;46694;54.382;9.708;2022-11-02T14:48:50;13.13;;;2.87;;
60859;SDS011;46694;54.382;9.708;2022-11-02T14:51:35;10.27;;;2.70;;
60859;SDS011;46694;54.382;9.708;2022-11-02T14:54:16;14.33;;;3.47;;
60859;SDS011;46694;54.382;9.708;2022-11-02T14:57:15;7.40;;;1.77;;
60859;SDS011;46694;54.382;9.708;2022-11-02T15:03:04;13.13;;;3.10;;
60859;SDS011;46694;54.382;9.708;2022-11-02T15:09:02;18.70;;;3.20;;
60859;SDS011;46694;54.382;9.708;2022-11-02T15:14:30;9.80;;;2.53;;
60859;SDS011;46694;54.382;9.708;2022-11-02T15:22:53;42.27;;;18.50;;
60859;SDS011;46694;54.382;9.708;2022-11-02T15:26:00;22.13;;;6.30;;
60859;SDS011;46694;54.382;9.708;2022-11-02T15:28:44;12.73;;;2.90;;
60859;SDS011;46694;54.382;9.708;2022-11-02T15:31:27;15.43;;;3.67;;
60859;SDS011;46694;54.382;9.708;2022-11-02T15:34:11;23.50;;;3.40;;
60859;SDS011;46694;54.382;9.708;2022-11-02T15:36:58;21.23;;;3.50;;
60859;SDS011;46694;54.382;9.708;2022-11-02T15:39:38;18.90;;;3.73;;
60859;SDS011;46694;54.382;9.708;2022-11-02T15:45:41;19.27;;;2.90;;
60859;SDS011;46694;54.382;9.708;2022-11-02T15:48:39;17.97;;;3.20;;
60859;SDS011;46694;54.382;9.708;2022-11-02T16:00:32;29.87;;;8.10;;
60859;SDS011;46694;54.382;9.708;2022-11-02T16:03:15;54.83;;;25.80;;
60859;SDS011;46694;54.382;9.708;2022-11-02T16:05:55;53.80;;;12.37;;
60859;SDS011;46694;54.382;9.708;2022-11-02T16:08:37;31.67;;;5.70;;
60859;SDS011;46694;54.382;9.708;2022-11-02T16:11:17;35.00;;;11.40;;
60859;SDS011;46694;54.382;9.708;2022-11-02T16:14:16;21.20;;;8.37;;
60859;SDS011;46694;54.382;9.708;2022-11-02T16:16:56;36.50;;;5.87;;
60859;SDS011;46694;54.382;9.708;2022-11-02T16:19:36;44.13;;;7.00;;
60859;SDS011;46694;54.382;9.708;2022-11-02T16:22:23;37.83;;;13.77;;
60859;SDS011;46694;54.382;9.708;2022-11-02T16:25:12;33.47;;;12.17;;
60859;SDS011;46694;54.382;9.708;2022-11-02T16:28:01;40.67;;;12.93;;
60859;SDS011;46694;54.382;9.708;2022-11-02T16:31:12;40.63;;;9.77;;
60859;SDS011;46694;54.382;9.708;2022-11-02T16:34:04;41.90;;;13.10;;
60859;SDS011;46694;54.382;9.708;2022-11-02T16:37:01;29.13;;;11.00;;
60859;SDS011;46694;54.382;9.708;2022-11-02T16:39:42;22.03;;;7.20;;
60859;SDS011;46694;54.382;9.708;2022-11-02T16:42:24;25.73;;;6.30;;
60859;SDS011;46694;54.382;9.708;2022-11-02T16:45:04;37.03;;;12.30;;
60859;SDS011;46694;54.382;9.708;2022-11-02T16:48:22;34.20;;;4.70;;
60859;SDS011;46694;54.382;9.708;2022-11-02T16:53:50;28.60;;;6.73;;
60859;SDS011;46694;54.382;9.708;2022-11-02T16:56:30;17.40;;;3.57;;
60859;SDS011;46694;54.382;9.708;2022-11-02T16:59:11;19.47;;;9.40;;
60859;SDS011;46694;54.382;9.708;2022-11-02T17:01:56;35.10;;;6.20;;
60859;SDS011;46694;54.382;9.708;2022-11-02T17:04:39;25.13;;;4.80;;
60859;SDS011;46694;54.382;9.708;2022-11-02T17:07:21;15.90;;;5.23;;
60859;SDS011;46694;54.382;9.708;2022-11-02T17:10:07;28.27;;;7.40;;
60859;SDS011;46694;54.382;9.708;2022-11-02T17:12:56;18.00;;;6.87;;
60859;SDS011;46694;54.382;9.708;2022-11-02T17:15:37;23.30;;;5.60;;
60859;SDS011;46694;54.382;9.708;2022-11-02T17:18:24;37.10;;;10.87;;
60859;SDS011;46694;54.382;9.708;2022-11-02T17:23:52;23.87;;;7.70;;
60859;SDS011;46694;54.382;9.708;2022-11-02T17:26:33;22.43;;;6.80;;
60859;SDS011;46694;54.382;9.708;2022-11-02T17:31:57;22.03;;;4.00;;
60859;SDS011;46694;54.382;9.708;2022-11-02T17:37:35;18.60;;;5.93;;
60859;SDS011;46694;54.382;9.708;2022-11-02T17:40:15;30.13;;;4.10;;
60859;SDS011;46694;54.382;9.708;2022-11-02T17:42:55;13.03;;;3.73;;
60859;SDS011;46694;54.382;9.708;2022-11-02T17:45:37;26.20;;;8.47;;
60859;SDS011;46694;54.382;9.708;2022-11-02T17:48:17;27.23;;;8.50;;
60859;SDS011;46694;54.382;9.708;2022-11-02T17:50:57;49.93;;;26.20;;
60859;SDS011;46694;54.382;9.708;2022-11-02T17:53:40;39.50;;;15.80;;
60859;SDS011;46694;54.382;9.708;2022-11-02T17:56:20;26.23;;;10.03;;
60859;SDS011;46694;54.382;9.708;2022-11-02T17:58:59;20.13;;;10.70;;
60859;SDS011;46694;54.382;9.708;2022-11-02T18:01:39;24.33;;;5.67;;
60859;SDS011;46694;54.382;9.708;2022-11-02T18:04:19;26.00;;;8.47;;
60859;SDS011;46694;54.382;9.708;2022-11-02T18:07:01;22.80;;;7.73;;
60859;SDS011;46694;54.382;9.708;2022-11-02T18:09:41;13.60;;;6.03;;
60859;SDS011;46694;54.382;9.708;2022-11-02T18:12:21;13.83;;;3.90;;
60859;SDS011;46694;54.382;9.708;2022-11-02T18:15:00;21.17;;;3.80;;
60859;SDS011;46694;54.382;9.708;2022-11-02T18:17:40;16.27;;;4.63;;
60859;SDS011;46694;54.382;9.708;2022-11-02T18:20:20;15.83;;;5.33;;
60859;SDS011;46694;54.382;9.708;2022-11-02T18:23:02;20.30;;;4.43;;
60859;SDS011;46694;54.382;9.708;2022-11-02T18:25:41;22.85;;;5.20;;
60859;SDS011;46694;54.382;9.708;2022-11-02T18:28:21;18.70;;;4.50;;
60859;SDS011;46694;54.382;9.708;2022-11-02T18:31:00;18.60;;;4.53;;
60859;SDS011;46694;54.382;9.708;2022-11-02T18:33:41;21.23;;;4.50;;
60859;SDS011;46694;54.382;9.708;2022-11-02T18:36:21;19.57;;;5.30;;
60859;SDS011;46694;54.382;9.708;2022-11-02T18:39:01;19.00;;;4.70;;
60859;SDS011;46694;54.382;9.708;2022-11-02T18:41:40;17.58;;;4.50;;
60859;SDS011;46694;54.382;9.708;2022-11-02T18:44:20;13.80;;;4.63;;
60859;SDS011;46694;54.382;9.708;2022-11-02T18:47:00;16.83;;;3.57;;
60859;SDS011;46694;54.382;9.708;2022-11-02T18:49:40;15.83;;;3.40;;
60859;SDS011;46694;54.382;9.708;2022-11-02T18:52:19;17.00;;;3.20;;
60859;SDS011;46694;54.382;9.708;2022-11-02T18:54:59;12.57;;;3.17;;
60859;SDS011;46694;54.382;9.708;2022-11-02T18:57:43;13.63;;;3.37;;
60859;SDS011;46694;54.382;9.708;2022-11-02T19:00:23;16.50;;;2.90;;
60859;SDS011;46694;54.382;9.708;2022-11-02T19:03:02;15.32;;;3.10;;
60859;SDS011;46694;54.382;9.708;2022-11-02T19:05:42;8.37;;;2.83;;
60859;SDS011;46694;54.382;9.708;2022-11-02T19:08:49;12.73;;;2.87;;
60859;SDS011;46694;54.382;9.708;2022-11-02T19:11:54;17.97;;;4.00;;
60859;SDS011;46694;54.382;9.708;2022-11-02T19:14:40;19.57;;;2.67;;
60859;SDS011;46694;54.382;9.708;2022-11-02T19:17:24;18.83;;;3.70;;
60859;SDS011;46694;54.382;9.708;2022-11-02T19:20:05;18.13;;;3.95;;
60859;SDS011;46694;54.382;9.708;2022-11-02T19:22:45;15.67;;;3.17;;
60859;SDS011;46694;54.382;9.708;2022-11-02T19:25:31;16.25;;;4.15;;
60859;SDS011;46694;54.382;9.708;2022-11-02T19:28:11;16.60;;;3.67;;
60859;SDS011;46694;54.382;9.708;2022-11-02T19:30:50;25.60;;;6.00;;